KDOV/DOV METAR and TAF weather

Enter ICAO airport designator
Station Type Date Time Source
KDOV METAR 2021/09/16 21:56 UTC NOAA

KDOV 162156Z AUTO 08008KT 10SM BKN019 BKN028 BKN033 OVC046 23/21 A3013 RMK AO2 RAE16RAB16E16 CIG 019V028 SLP207 P0000 T02330208 $


Station Type Date Time Source
KDOV Decoded METAR 2021/09/16 21:56 UTC NOAA

Dover Air Force Base, DE, United States (KDOV) 39-08N 075-28W
Sep 16, 2021 - 05:56 PM EDT / 2021.09.16 2156 UTC
Wind: from the E (080 degrees) at 9 MPH (8 KT):0
Visibility: 10 mile(s):0
Sky conditions: overcast
Precipitation last hour: A trace
Temperature: 73.9 F (23.3 C)
Dew Point: 69.4 F (20.8 C)
Relative Humidity: 85%
Pressure (altimeter): 30.13 in. Hg (1020 hPa)
ob: KDOV 162156Z AUTO 08008KT 10SM BKN019 BKN028 BKN033 OVC046 23/21 A3013 RMK AO2 RAE16RAB16E16 CIG 019V028 SLP207 P0000 T02330208
cycle: 22

Station Type Date Time Source
KDOV TAF 2021/09/16 22:15 UTC NOAA

TAF TAF
AMD KDOV 162210Z 1622/1722 09006KT 9999 BKN010 QNH3011INS
TEMPO 1622/1624 09012KT 8000 -TSRA BKN020CB
BECMG 1700/1701 06009KT 9999 BKN006 OVC020 QNH3013INS
BECMG 1712/1713 06009KT 9999 VCSH OVC020 QNH3012INS
BECMG 1717/1718 06009KT 8000 -RA OVC020 QNH3006INS
BECMG 1721/1722 03009KT 9999 NSW OVC020 QNH3006INS TX25/1622Z TN21/1710Z

Example: see airport list